createdAt,value
2022-11-24T14:19:31.028Z,10.99
2022-11-24T14:25:04.473Z,10.50
2022-11-24T14:27:42.369Z,10.42
2022-11-24T14:30:16.000Z,11.05
2022-11-24T14:32:56.558Z,10.77
2022-11-24T14:35:25.499Z,11.03
2022-11-24T14:37:53.051Z,10.19
2022-11-24T14:40:55.120Z,11.03
2022-11-24T14:43:31.565Z,10.51
2022-11-24T14:46:05.614Z,10.50
2022-11-24T14:48:37.745Z,10.83
2022-11-24T14:51:27.864Z,10.19
2022-11-24T14:54:03.110Z,10.40
2022-11-24T14:56:37.486Z,9.89
2022-11-24T14:59:24.478Z,9.97
2022-11-24T15:01:52.041Z,9.90
2022-11-24T15:07:27.410Z,9.75
2022-11-24T15:10:00.477Z,10.04
2022-11-24T15:12:31.830Z,9.79
2022-11-24T15:15:22.157Z,9.60
2022-11-24T15:18:00.171Z,9.73
2022-11-24T15:20:46.469Z,9.73
2022-11-24T15:23:16.500Z,9.86
2022-11-24T15:25:44.838Z,9.26
2022-11-24T15:28:12.596Z,9.42
2022-11-24T15:30:39.770Z,9.04
2022-11-24T15:33:18.215Z,9.18
2022-11-24T15:35:46.510Z,8.87
2022-11-24T15:38:14.429Z,9.14
2022-11-24T15:40:45.546Z,8.40
2022-11-24T15:43:33.894Z,8.98
2022-11-24T15:46:02.349Z,8.65
2022-11-24T15:48:30.391Z,8.74
2022-11-24T15:50:59.639Z,8.94
2022-11-24T15:53:34.418Z,9.05
2022-11-24T15:56:09.591Z,8.35
2022-11-24T15:58:38.052Z,8.57
2022-11-24T16:01:06.902Z,8.28
2022-11-24T16:03:46.901Z,7.95
2022-11-24T16:06:24.536Z,7.87
2022-11-24T16:08:54.670Z,8.06
2022-11-24T16:11:24.926Z,8.64
2022-11-24T16:13:54.806Z,8.28
2022-11-24T16:18:58.320Z,8.11
2022-11-24T16:21:30.775Z,7.89
2022-11-24T16:23:59.501Z,7.38
2022-11-24T16:26:29.299Z,7.94
2022-11-24T16:28:58.794Z,7.92
2022-11-24T16:31:29.290Z,7.56
2022-11-24T16:33:58.369Z,7.94
2022-11-24T16:36:28.218Z,7.35
2022-11-24T16:38:59.017Z,7.57
2022-11-24T16:41:29.426Z,7.68
2022-11-24T16:43:57.470Z,7.46
2022-11-24T16:46:28.655Z,7.87
2022-11-24T16:49:02.170Z,7.27
2022-11-24T16:51:34.768Z,7.65
2022-11-24T16:54:04.374Z,7.47
2022-11-24T16:56:31.716Z,7.42
2022-11-24T16:59:00.562Z,7.50
2022-11-24T17:01:33.843Z,6.90
2022-11-24T17:04:01.360Z,6.87
2022-11-24T17:06:29.079Z,6.86
2022-11-24T17:09:00.687Z,6.82
2022-11-24T17:11:29.293Z,6.54
2022-11-24T17:13:58.666Z,6.89
2022-11-24T17:16:27.156Z,6.85
2022-11-24T17:18:54.903Z,6.98
2022-11-24T17:21:24.639Z,6.53
2022-11-24T17:24:06.021Z,6.22
2022-11-24T17:26:34.282Z,7.02
2022-11-24T17:29:01.728Z,6.88
2022-11-24T17:31:33.853Z,6.52
2022-11-24T17:34:05.212Z,6.78
2022-11-24T17:36:42.027Z,6.96
2022-11-24T17:39:10.011Z,6.14
2022-11-24T17:41:42.689Z,6.59
2022-11-24T17:44:13.162Z,6.63
2022-11-24T17:46:44.084Z,6.59
2022-11-24T17:49:13.470Z,6.56
2022-11-24T17:51:59.120Z,6.45
2022-11-24T17:57:13.978Z,6.40
2022-11-24T17:59:41.608Z,6.55
2022-11-24T18:02:10.721Z,6.91
2022-11-24T18:04:38.681Z,6.45
2022-11-24T18:07:08.740Z,6.20
2022-11-24T18:09:37.533Z,5.96
2022-11-24T18:12:07.855Z,6.25
2022-11-24T18:14:35.809Z,5.74
2022-11-24T18:17:06.637Z,6.32
2022-11-24T18:19:35.911Z,5.86
2022-11-24T18:22:03.587Z,5.90
2022-11-24T18:24:33.865Z,6.13
2022-11-24T18:27:02.937Z,5.52
2022-11-24T18:29:30.049Z,5.90
2022-11-24T18:31:57.535Z,5.37
2022-11-24T18:34:25.329Z,5.52
2022-11-24T18:36:53.242Z,5.36
2022-11-24T18:39:20.579Z,5.46
2022-11-24T18:41:50.653Z,5.00
2022-11-24T18:44:18.436Z,5.20
2022-11-24T18:46:50.143Z,5.79
2022-11-24T18:49:23.351Z,5.13
2022-11-24T18:51:50.913Z,5.37
2022-11-24T18:54:20.541Z,5.45
2022-11-24T18:56:50.279Z,5.18
2022-11-24T18:59:18.106Z,5.18
2022-11-24T19:01:46.739Z,4.87
2022-11-24T19:04:17.566Z,5.40
2022-11-24T19:06:45.322Z,4.78
2022-11-24T19:09:15.539Z,5.28
2022-11-24T19:11:47.502Z,5.29
2022-11-24T19:14:17.090Z,5.22
2022-11-24T19:16:49.442Z,5.16
2022-11-24T19:19:17.704Z,5.53
2022-11-24T19:21:45.536Z,4.93
2022-11-24T19:24:17.392Z,4.90
2022-11-24T19:26:44.464Z,5.51
2022-11-24T19:29:12.023Z,5.14
2022-11-24T19:31:42.435Z,5.24
2022-11-24T19:34:15.394Z,5.30
2022-11-24T19:36:50.842Z,4.82
2022-11-24T19:39:37.153Z,4.76
2022-11-24T19:42:11.848Z,4.86
2022-11-24T19:44:42.649Z,4.70
2022-11-24T19:47:17.625Z,4.56
2022-11-24T19:49:59.553Z,4.48
2022-11-24T19:53:00.570Z,4.55
2022-11-24T19:55:33.174Z,4.19
2022-11-24T19:58:10.771Z,4.25
2022-11-24T20:00:45.477Z,4.08
2022-11-24T20:03:22.179Z,4.11
2022-11-24T20:06:03.739Z,4.27
2022-11-24T20:08:40.236Z,3.93
2022-11-24T20:11:17.866Z,3.62
2022-11-24T20:13:52.116Z,4.37
2022-11-24T20:16:27.124Z,3.88
2022-11-24T20:19:02.929Z,4.01
2022-11-24T20:21:41.120Z,3.90
2022-11-24T20:24:18.139Z,4.02
2022-11-24T20:26:58.573Z,4.00
2022-11-24T20:29:51.444Z,3.89
2022-11-24T20:32:29.783Z,3.83
2022-11-24T20:35:02.251Z,3.76
2022-11-24T20:37:37.920Z,3.72
2022-11-24T20:40:42.987Z,3.91
2022-11-24T20:43:12.909Z,3.99
2022-11-24T20:48:52.641Z,3.75
2022-11-24T20:51:34.837Z,3.87
2022-11-24T20:54:16.222Z,3.62
2022-11-24T20:57:16.054Z,3.82
2022-11-24T20:59:52.312Z,3.51
2022-11-24T21:02:41.706Z,3.91
2022-11-24T21:05:38.519Z,3.53
2022-11-24T21:08:20.097Z,3.66
2022-11-24T21:11:31.318Z,4.49
2022-11-24T21:14:16.411Z,3.80
2022-11-24T21:16:56.126Z,3.39
2022-11-24T21:23:57.363Z,3.35
2022-11-24T21:26:49.380Z,3.13
2022-11-24T21:29:27.635Z,3.21
2022-11-24T21:32:31.972Z,3.36
2022-11-24T21:35:15.588Z,2.98
2022-11-24T21:38:09.428Z,2.99
2022-11-24T21:40:58.201Z,3.06
2022-11-24T21:44:16.573Z,3.81
2022-11-24T21:47:29.604Z,2.83
2022-11-24T21:50:23.481Z,2.91
2022-11-24T21:53:03.687Z,3.09
2022-11-24T21:56:15.445Z,2.93
2022-11-24T21:58:55.562Z,3.29
2022-11-24T22:02:02.647Z,3.33
2022-11-24T22:05:00.858Z,2.68
2022-11-24T22:07:52.889Z,2.70
2022-11-24T22:10:36.346Z,2.92
2022-11-24T22:13:44.763Z,3.36
2022-11-24T22:16:30.499Z,2.60
2022-11-24T22:19:12.392Z,2.87
2022-11-24T22:21:48.371Z,2.95
2022-11-24T22:24:16.290Z,2.50
2022-11-24T22:27:04.511Z,2.44
2022-11-24T22:29:34.293Z,3.06
2022-11-24T22:32:01.783Z,2.86
2022-11-24T22:34:40.612Z,2.58
2022-11-24T22:37:37.167Z,2.30
2022-11-24T22:40:17.850Z,2.67
2022-11-24T22:43:28.611Z,2.62
2022-11-24T22:46:06.772Z,2.51
2022-11-24T22:48:42.143Z,2.54
2022-11-24T22:51:34.472Z,2.24
2022-11-24T22:54:12.574Z,2.19
2022-11-24T22:56:42.821Z,2.86
2022-11-24T22:59:22.953Z,2.85
2022-11-24T23:01:59.238Z,2.36
2022-11-24T23:04:26.484Z,2.72
2022-11-24T23:06:53.693Z,2.68
2022-11-24T23:09:21.147Z,2.52
2022-11-24T23:11:48.845Z,2.59
2022-11-24T23:14:17.972Z,3.09
2022-11-24T23:16:45.411Z,2.10
2022-11-24T23:19:15.194Z,2.72
2022-11-24T23:21:45.085Z,2.90
2022-11-24T23:24:12.240Z,2.54
2022-11-24T23:26:41.290Z,2.76
2022-11-24T23:29:10.184Z,2.44
2022-11-24T23:31:40.394Z,2.18
2022-11-24T23:34:07.619Z,2.97
2022-11-24T23:36:34.708Z,2.23
2022-11-24T23:39:09.508Z,1.95
2022-11-24T23:41:36.832Z,1.49
2022-11-24T23:44:06.615Z,1.89
2022-11-24T23:46:34.103Z,1.63
2022-11-24T23:49:01.272Z,1.77
2022-11-24T23:51:30.907Z,2.14
2022-11-24T23:53:59.469Z,2.18
2022-11-24T23:56:33.269Z,1.85
2022-11-24T23:59:02.310Z,2.52
